AirNav   Jet Aviation Boston
 
 1073 users online  

K33 Salem Memorial Airport
Salem, Missouri, USA

GOING TO SALEM?


FAA INFORMATION EFFECTIVE 21 JUNE 2018

Location

FAA Identifier: K33
Lat/Long: 37-36-54.8000N / 091-36-16.0000W
37-36.913333N / 091-36.266667W
37.6152222 / -91.6044444
(estimated)
Elevation: 1241.2 ft. / 378.3 m (surveyed)
Variation: 02E (2000)
From city: 4 miles SW of SALEM, MO
Time zone: UTC -5 (UTC -6 during Standard Time)
Zip code: 65560

Airport Operations

Airport use: Open to the public
Activation date: 11/1958
Control tower: no
ARTCC: KANSAS CITY CENTER
FSS: SAINT LOUIS FLIGHT SERVICE STATION
NOTAMs facility: STL (NOTAM-D service available)
Attendance: UNATNDD
Pattern altitude: 2041.2 ft. MSL
Wind indicator: lighted
Segmented circle: yes
Lights: ACTVT MIRL RY 17/35 - CTAF; TO INCR INTST & ACTVT REIL RYS 17 & 35 - CTAF
Beacon: white-green (lighted land airport)
Operates sunset to sunrise.

Airport Communications

CTAF: 122.9
  • APCH/DEP SVC PROVIDED BY KANSAS CITY ARTCC ON FREQS 128.35/284.675 (MAPLES RCAG).

Nearby radio navigation aids

VOR radial/distance  VOR name  Freq  Var
MAPr074/8.9MAPLES VORTAC113.4006E
TBNr104/(26.5)FORNEY VOR110.0003E
VIHr165/32.7VICHY VOR/DME117.7006E

 
NDB name  Hdg/Dist  Freq  Var  ID
BUCKHORN099/24.239103EBHN -... .... -.

Airport Services

Fuel available: 100LL
SELF SVC FUEL AVBL 24 HRS.
Parking: tiedowns

Runway Information

Runway 17/35

Dimensions: 2998 x 60 ft. / 914 x 18 m
Surface: asphalt, in good condition
Weight bearing capacity: 
Single wheel: 12.5
Runway edge lights: medium intensity
RUNWAY 17  RUNWAY 35
Latitude: 37-37.154888N37-36.672645N
Longitude: 091-36.333602W091-36.199317W
Elevation: 1220.3 ft.1241.2 ft.
Traffic pattern: leftleft
Runway heading: 166 magnetic, 168 true346 magnetic, 348 true
Markings: nonprecision, in good conditionnonprecision, in good condition
Visual slope indicator: 2-light PAPI on left (3.00 degrees glide path)2-light PAPI on left (3.00 degrees glide path)
Runway end identifier lights: yesyes
Touchdown point: yes, no lightsyes, no lights
Obstructions: 5 ft. trees, 350 ft. from runway, 125 ft. left and right of centerline, 30:1 slope to clear20 ft. trees, 950 ft. from runway, 220 ft. left of centerline, 37:1 slope to clear

Airport Ownership and Management from official FAA records

Ownership: Publicly-owned
Owner: CITY OF SALEM
400 NORTH IRON STREET
SALEM, MO 65560
Phone 573-729-4811
Manager: GARY GLENN
400 NORTH IRON STREET
SALEM, MO 65560
Phone 573-729-5900

Airport Operational Statistics

Aircraft based on the field: 11
Single engine airplanes: 9
Multi engine airplanes: 2
    
Aircraft operations: avg 87/week *
57% local general aviation
42% transient general aviation
1% military
* for 12-month period ending 31 December 2014

Additional Remarks

HELICOPTER OPERATIONS ON & INVOF ARPT.

Instrument Procedures

NOTE: All procedures below are presented as PDF files. If you need a reader for these files, you should download the free Adobe Reader.

NOT FOR NAVIGATION. Please procure official charts for flight.
FAA instrument procedures published for use from 21 June 2018 at 0901Z to 19 July 2018 at 0900Z.

 
IAPs - Instrument Approach Procedures
RNAV (GPS) RWY 17   download (142KB)
RNAV (GPS) RWY 35   download (145KB)
VOR-A   download (125KB)
NOTE: Special Take-Off Minimums/Departure Procedures apply   download (158KB)

Other nearby airports with instrument procedures:

M48 - Houston Memorial Airport (25 nm SW)
KTBN - Waynesville-St. Robert Regional Airport-Forney Field (27 nm W)
KUBX - Cuba Municipal Airport (28 nm N)
KVIH - Rolla National Airport (32 nm N)
KTVB - Cabool Memorial Airport (37 nm SW)
 
Loc | Ops | Rwys | IFR | FBO | Links
Com | Nav | Svcs | Stats | Notes

Kansas City Aviation Department
 
Area around K33 (Salem Memorial Airport)
 
Road maps at: MapQuest Bing Google
 
Aerial photo
WARNING: Photo may not be current or correct
Aerial photo of K33 (Salem Memorial Airport)
Do you have a better or more recent aerial photo of Salem Memorial Airport that you would like to share? If so, please send us your photo.

 
Sectional chart

 
Airport distance calculator
Flying to Salem Memorial Airport? Find the distance to fly.

From to K33

Sunrise and sunset
Times for 23-Jun-2018
 Local
(UTC-5)
 Zulu
(UTC)
Morning civil twilight05:1510:15
Sunrise05:4710:47
Sunset20:3001:30
Evening civil twilight21:0202:02

Current date and time
Zulu (UTC)  23-Jun-2018 16:20:54
Local (UTC-5)  23-Jun-2018 11:20:54
 
METAR
KTBN 
25nm W 
231556Z AUTO 16005KT 10SM CLR 26/18 A2981 RMK AO2 SLP088 T02560175
KVIH 
32nm N 
231553Z AUTO VRB04KT 10SM FEW023 SCT100 23/17 A2983 RMK AO2 SLP090 T02330172
KUNO 
46nm S 
231553Z AUTO 14005KT 10SM CLR 27/18 A2983 RMK AO2 SLP087 T02670183
KLBO 
50nm W 
231555Z AUTO 16003KT 10SM SCT026 SCT075 26/18 A2983 RMK AO2
TAF
NOTAMs
Click for the latest NOTAMs
NOTAMs are issued by the DoD/FAA and will open in a separate window not controlled by AirNav.

 

 
 

FBO, Fuel Providers, and Aircraft Ground Support

  
 Business Name 
 
 Contact 
 
 Services / Description 
 
Fuel Prices
 
Comments
  
City of Salem 573-729-5900
no information available

If you are affiliated with City of Salem and would like to show here your services, contact info, web link, logo, and more, click here
100LL
SS $3.69 
 Updated 23-May-2018
 
   3 read write
SS=Self service
Update Fuel Prices
 

Would you like to see your business listed on this page?

 If your business provides an interesting product or service to pilots, flight crews, aircraft, or users of the Salem Memorial Airport, you should consider listing it here.  To start the listing process, click on the button below
 
Add a business
 

Other Pages about Salem Memorial Airport

Update a link
 
Copyright © AirNav, LLC. All rights reserved. Privacy Policy  Contact